createdAt,value
2023-10-28T00:00:47.655Z,45.73
2023-10-28T00:03:14.167Z,45.62
2023-10-28T00:05:40.642Z,45.64
2023-10-28T00:08:07.078Z,45.75
2023-10-28T00:10:34.267Z,45.95
2023-10-28T00:13:00.780Z,45.93
2023-10-28T00:15:27.182Z,45.66
2023-10-28T00:17:53.585Z,46.10
2023-10-28T00:20:20.125Z,45.75
2023-10-28T00:22:46.945Z,45.79
2023-10-28T00:25:16.652Z,45.99
2023-10-28T00:27:43.318Z,45.90
2023-10-28T00:30:10.790Z,46.01
2023-10-28T00:32:37.784Z,45.97
2023-10-28T00:35:05.322Z,45.88
2023-10-28T00:37:31.734Z,46.17
2023-10-28T00:39:58.591Z,46.10
2023-10-28T00:42:25.507Z,46.30
2023-10-28T00:44:51.904Z,46.30
2023-10-28T00:47:18.647Z,46.12
2023-10-28T00:49:46.121Z,46.06
2023-10-28T00:52:12.696Z,46.04
2023-10-28T00:54:39.066Z,46.24
2023-10-28T00:57:05.415Z,46.19
2023-10-28T00:59:31.934Z,46.33
2023-10-28T01:01:59.659Z,46.19
2023-10-28T01:04:26.963Z,46.00
2023-10-28T01:06:53.471Z,46.36
2023-10-28T01:09:20.151Z,46.08
2023-10-28T01:11:48.332Z,46.28
2023-10-28T01:14:14.782Z,46.10
2023-10-28T01:16:41.918Z,46.03
2023-10-28T01:19:10.489Z,46.37
2023-10-28T01:21:36.850Z,46.22
2023-10-28T01:24:03.259Z,46.38
2023-10-28T01:26:29.777Z,46.17
2023-10-28T01:28:56.206Z,46.42
2023-10-28T01:31:23.061Z,46.44
2023-10-28T01:33:49.562Z,46.14
2023-10-28T01:36:16.757Z,46.41
2023-10-28T01:38:44.109Z,46.58
2023-10-28T01:41:14.419Z,46.32
2023-10-28T01:43:47.200Z,46.59
2023-10-28T01:46:13.733Z,46.59
2023-10-28T01:48:40.276Z,46.54
2023-10-28T01:51:06.692Z,46.56
2023-10-28T01:53:33.305Z,46.66
2023-10-28T01:55:59.700Z,46.72
2023-10-28T01:58:26.202Z,46.60
2023-10-28T02:00:52.582Z,46.43
2023-10-28T02:03:19.019Z,46.41
2023-10-28T02:05:45.484Z,46.60
2023-10-28T02:08:11.871Z,46.55
2023-10-28T02:10:38.296Z,46.62
2023-10-28T02:13:06.009Z,46.80
2023-10-28T02:15:32.409Z,46.42
2023-10-28T02:17:58.819Z,46.35
2023-10-28T02:20:25.257Z,46.67
2023-10-28T02:22:51.832Z,46.69
2023-10-28T02:25:18.276Z,46.44
2023-10-28T02:27:46.031Z,46.65
2023-10-28T02:30:13.357Z,46.61
2023-10-28T02:32:39.929Z,46.58
2023-10-28T02:35:06.690Z,46.44
2023-10-28T02:37:33.062Z,46.46
2023-10-28T02:39:59.413Z,46.40
2023-10-28T02:42:26.009Z,46.39
2023-10-28T02:44:52.385Z,46.66
2023-10-28T02:47:18.825Z,46.51
2023-10-28T02:49:45.536Z,46.82
2023-10-28T02:52:12.061Z,46.45
2023-10-28T02:54:38.845Z,46.58
2023-10-28T02:57:05.253Z,46.60
2023-10-28T02:59:31.607Z,46.71
2023-10-28T03:01:58.688Z,46.52
2023-10-28T03:04:25.133Z,46.79
2023-10-28T03:06:52.504Z,46.79
2023-10-28T03:09:19.209Z,46.83
2023-10-28T03:11:46.730Z,47.02
2023-10-28T03:14:13.289Z,46.81
2023-10-28T03:16:40.305Z,46.71
2023-10-28T03:19:07.133Z,46.96
2023-10-28T03:21:33.600Z,46.65
2023-10-28T03:24:00.154Z,46.99
2023-10-28T03:26:26.600Z,46.70
2023-10-28T03:28:53.023Z,46.72
2023-10-28T03:31:19.474Z,46.95
2023-10-28T03:33:47.416Z,46.77
2023-10-28T03:36:13.787Z,46.82
2023-10-28T03:38:40.233Z,46.88
2023-10-28T03:41:07.656Z,46.61
2023-10-28T03:43:34.089Z,46.72
2023-10-28T03:46:00.643Z,46.87
2023-10-28T03:48:27.083Z,46.97
2023-10-28T03:50:59.924Z,46.76
2023-10-28T03:53:26.291Z,46.64
2023-10-28T03:55:52.681Z,46.91
2023-10-28T03:58:19.109Z,46.62
2023-10-28T04:00:45.484Z,46.77
2023-10-28T04:03:12.291Z,47.00
2023-10-28T04:05:39.356Z,46.76
2023-10-28T04:08:06.438Z,46.92
2023-10-28T04:10:32.840Z,46.85
2023-10-28T04:12:59.542Z,46.88
2023-10-28T04:15:26.365Z,46.86
2023-10-28T04:17:52.800Z,46.84
2023-10-28T04:20:19.313Z,46.85
2023-10-28T04:22:45.780Z,47.19
2023-10-28T04:25:12.157Z,46.96
2023-10-28T04:27:38.526Z,46.81
2023-10-28T04:30:09.324Z,47.07
2023-10-28T04:32:35.833Z,47.09
2023-10-28T04:35:08.646Z,46.85
2023-10-28T04:37:46.354Z,46.97
2023-10-28T04:40:13.129Z,46.90
2023-10-28T04:42:39.493Z,46.94
2023-10-28T04:45:07.362Z,47.01
2023-10-28T04:47:33.987Z,46.92
2023-10-28T04:50:00.408Z,46.94
2023-10-28T04:52:26.832Z,46.84
2023-10-28T04:54:53.462Z,47.02
2023-10-28T04:57:19.917Z,46.85
2023-10-28T04:59:46.394Z,46.77
2023-10-28T05:02:12.948Z,46.87
2023-10-28T05:04:39.344Z,46.78
2023-10-28T05:07:05.762Z,46.81
2023-10-28T05:09:32.121Z,46.57
2023-10-28T05:11:58.968Z,46.49
2023-10-28T05:14:25.996Z,46.63
2023-10-28T05:16:54.000Z,46.75
2023-10-28T05:19:23.679Z,46.70
2023-10-28T05:21:50.268Z,46.86
2023-10-28T05:24:16.733Z,46.84
2023-10-28T05:26:44.734Z,46.59
2023-10-28T05:29:11.127Z,46.65
2023-10-28T05:31:37.565Z,46.47
2023-10-28T05:34:04.078Z,46.69
2023-10-28T05:36:30.449Z,46.88
2023-10-28T05:38:57.240Z,47.01
2023-10-28T05:41:23.936Z,46.82
2023-10-28T05:43:50.440Z,47.06
2023-10-28T05:46:18.079Z,46.97
2023-10-28T05:48:44.516Z,46.95
2023-10-28T05:51:10.987Z,47.03
2023-10-28T05:53:37.354Z,47.12
2023-10-28T05:56:04.206Z,46.84
2023-10-28T05:58:30.680Z,47.05
2023-10-28T06:01:00.222Z,47.15
2023-10-28T06:03:27.550Z,47.00
2023-10-28T06:05:53.927Z,46.94
2023-10-28T06:08:20.387Z,47.03
2023-10-28T06:10:46.855Z,46.90
2023-10-28T06:13:13.338Z,46.99
2023-10-28T06:15:39.806Z,46.96
2023-10-28T06:18:06.800Z,46.71
2023-10-28T06:20:33.251Z,46.75
2023-10-28T06:22:59.761Z,46.69
2023-10-28T06:25:26.509Z,46.67
2023-10-28T06:27:52.887Z,46.83
2023-10-28T06:30:19.312Z,46.73
2023-10-28T06:32:45.792Z,46.29
2023-10-28T06:35:14.914Z,45.97
2023-10-28T06:37:41.576Z,46.00
2023-10-28T06:40:10.773Z,46.05
2023-10-28T06:42:38.365Z,46.10
2023-10-28T06:45:07.047Z,46.19
2023-10-28T06:47:34.681Z,46.23
2023-10-28T06:50:01.559Z,46.40
2023-10-28T06:52:28.133Z,46.31
2023-10-28T06:54:54.516Z,46.54
2023-10-28T06:57:20.872Z,46.46
2023-10-28T06:59:47.452Z,46.45
2023-10-28T07:02:14.098Z,46.39
2023-10-28T07:04:40.776Z,46.52
2023-10-28T07:07:07.453Z,46.22
2023-10-28T07:09:33.829Z,46.24
2023-10-28T07:12:00.225Z,46.29
2023-10-28T07:14:26.635Z,45.75
2023-10-28T07:16:53.113Z,46.14
2023-10-28T07:19:19.579Z,45.97
2023-10-28T07:21:46.014Z,45.81
2023-10-28T07:24:12.730Z,46.23
2023-10-28T07:26:39.929Z,46.19
2023-10-28T07:29:09.099Z,46.02
2023-10-28T07:31:39.396Z,46.49
2023-10-28T07:34:06.642Z,46.58
2023-10-28T07:36:33.777Z,46.52
2023-10-28T07:39:02.263Z,46.43
2023-10-28T07:41:31.460Z,46.54
2023-10-28T07:43:58.212Z,46.24
2023-10-28T07:46:24.980Z,46.65
2023-10-28T07:48:52.228Z,46.45
2023-10-28T07:51:18.679Z,46.33
2023-10-28T07:53:47.663Z,44.53
2023-10-28T07:56:14.142Z,44.75
2023-10-28T07:58:40.850Z,45.80
2023-10-28T08:01:14.548Z,45.62
2023-10-28T08:03:41.156Z,45.80
2023-10-28T08:06:15.001Z,45.78
2023-10-28T08:08:47.770Z,45.86
2023-10-28T08:11:14.840Z,46.09
2023-10-28T08:13:41.280Z,46.17
2023-10-28T08:16:13.592Z,45.73
2023-10-28T08:18:42.045Z,45.36
2023-10-28T08:21:08.537Z,45.27
2023-10-28T08:23:34.927Z,45.42
2023-10-28T08:26:01.367Z,45.37
2023-10-28T08:28:27.747Z,45.43
2023-10-28T08:30:54.303Z,45.89
2023-10-28T08:33:23.329Z,45.67
2023-10-28T08:35:49.703Z,45.84
2023-10-28T08:38:18.724Z,45.64
2023-10-28T08:40:45.612Z,45.77
2023-10-28T08:43:11.980Z,45.98
2023-10-28T08:45:38.592Z,45.95
2023-10-28T08:48:05.171Z,45.50
2023-10-28T08:50:31.589Z,45.77
2023-10-28T08:52:58.151Z,45.59
2023-10-28T08:55:25.209Z,45.55
2023-10-28T08:57:52.469Z,45.75
2023-10-28T09:00:23.597Z,45.61
2023-10-28T09:02:52.871Z,45.62
2023-10-28T09:05:21.252Z,45.75
2023-10-28T09:07:47.739Z,45.75
2023-10-28T09:10:14.512Z,45.83
2023-10-28T09:12:40.917Z,45.90
2023-10-28T09:15:09.813Z,45.90
2023-10-28T09:17:36.984Z,46.00
2023-10-28T09:20:10.554Z,45.81
2023-10-28T09:22:37.967Z,45.62
2023-10-28T09:25:04.427Z,45.60
2023-10-28T09:27:30.818Z,45.87
2023-10-28T09:30:04.965Z,45.57
2023-10-28T09:32:31.979Z,45.54
2023-10-28T09:34:58.394Z,45.70
2023-10-28T09:37:24.790Z,45.63
2023-10-28T09:39:51.628Z,45.69
2023-10-28T09:42:18.044Z,45.70
2023-10-28T09:44:45.418Z,45.78
2023-10-28T09:47:11.857Z,45.65
2023-10-28T09:49:38.256Z,45.69
2023-10-28T09:52:07.988Z,45.93
2023-10-28T09:54:37.554Z,45.77
2023-10-28T09:57:04.251Z,45.78
2023-10-28T09:59:33.111Z,45.49
2023-10-28T10:02:07.661Z,45.63
2023-10-28T10:04:37.686Z,45.76
2023-10-28T10:07:04.056Z,45.44
2023-10-28T10:09:40.238Z,45.53
2023-10-28T10:12:06.936Z,45.59
2023-10-28T10:14:33.327Z,45.72
2023-10-28T10:17:18.666Z,45.66
2023-10-28T10:19:45.273Z,45.80
2023-10-28T10:22:12.220Z,45.49
2023-10-28T10:24:48.708Z,45.30
2023-10-28T10:27:15.244Z,44.84
2023-10-28T10:29:41.897Z,44.88
2023-10-28T10:32:18.089Z,44.80
2023-10-28T10:34:47.560Z,45.17
2023-10-28T10:37:23.679Z,45.25
2023-10-28T10:39:50.055Z,45.11
2023-10-28T10:42:16.434Z,45.28
2023-10-28T10:44:42.902Z,45.48
2023-10-28T10:47:10.152Z,45.62
2023-10-28T10:49:37.278Z,45.78
2023-10-28T10:52:04.002Z,45.77
2023-10-28T10:54:30.682Z,45.92
2023-10-28T10:56:57.272Z,45.80
2023-10-28T10:59:23.692Z,45.93
2023-10-28T11:01:50.140Z,46.00
2023-10-28T11:04:16.820Z,45.98
2023-10-28T11:06:43.173Z,45.99
2023-10-28T11:09:10.141Z,45.93
2023-10-28T11:11:39.464Z,46.24
2023-10-28T11:14:06.369Z,46.26
2023-10-28T11:16:32.972Z,46.34
2023-10-28T11:19:00.512Z,46.27
2023-10-28T11:21:27.135Z,46.23
2023-10-28T11:23:55.256Z,46.42
2023-10-28T11:26:21.789Z,46.02
2023-10-28T11:28:48.239Z,46.11
2023-10-28T11:31:14.742Z,45.92
2023-10-28T11:33:41.398Z,46.07
2023-10-28T11:36:12.241Z,45.84
2023-10-28T11:38:41.024Z,45.83
2023-10-28T11:41:08.205Z,45.88
2023-10-28T11:43:35.059Z,45.90
2023-10-28T11:46:01.473Z,46.17
2023-10-28T11:48:28.037Z,46.22
2023-10-28T11:50:57.250Z,46.01
2023-10-28T11:53:24.324Z,46.15
2023-10-28T11:55:50.803Z,46.39
2023-10-28T11:58:17.233Z,46.44
2023-10-28T12:00:43.688Z,46.60
2023-10-28T12:03:10.093Z,46.75
2023-10-28T12:05:36.581Z,46.83
2023-10-28T12:08:02.990Z,46.56
2023-10-28T12:10:29.512Z,46.75
2023-10-28T12:12:55.878Z,46.90
2023-10-28T12:15:22.248Z,47.01
2023-10-28T12:17:48.962Z,46.79
2023-10-28T12:20:18.388Z,46.92
2023-10-28T12:22:44.870Z,46.96
2023-10-28T12:25:12.609Z,47.05
2023-10-28T12:27:39.048Z,47.17
2023-10-28T12:30:09.397Z,47.17
2023-10-28T12:32:35.832Z,47.24
2023-10-28T12:35:02.281Z,47.14
2023-10-28T12:37:28.662Z,47.48
2023-10-28T12:39:55.012Z,47.46
2023-10-28T12:42:21.501Z,47.24
2023-10-28T12:44:47.865Z,47.17
2023-10-28T12:47:14.321Z,47.19
2023-10-28T12:49:40.704Z,46.95
2023-10-28T12:52:07.062Z,47.01
2023-10-28T12:54:33.681Z,46.68
2023-10-28T12:57:00.207Z,46.92
2023-10-28T12:59:28.805Z,46.71
2023-10-28T13:01:55.787Z,46.84
2023-10-28T13:04:24.719Z,46.77
2023-10-28T13:06:51.307Z,46.74
2023-10-28T13:09:17.688Z,46.95
2023-10-28T13:11:44.144Z,46.85
2023-10-28T13:14:12.604Z,47.08
2023-10-28T13:16:39.067Z,46.80
2023-10-28T13:19:05.447Z,46.90
2023-10-28T13:21:32.155Z,46.82
2023-10-28T13:23:59.164Z,46.95
2023-10-28T13:26:25.542Z,46.91
2023-10-28T13:28:51.972Z,47.12
2023-10-28T13:31:18.390Z,47.04
2023-10-28T13:33:44.788Z,47.22
2023-10-28T13:36:12.210Z,47.21
2023-10-28T13:38:39.070Z,47.13
2023-10-28T13:41:06.334Z,47.19
2023-10-28T13:43:34.144Z,47.16
2023-10-28T13:46:06.863Z,47.18
2023-10-28T13:48:33.312Z,47.10
2023-10-28T13:50:59.928Z,47.13
2023-10-28T13:53:26.485Z,47.38
2023-10-28T13:55:59.660Z,46.90
2023-10-28T13:58:26.089Z,47.32
2023-10-28T14:00:53.448Z,47.38
2023-10-28T14:03:21.844Z,47.13
2023-10-28T14:05:48.399Z,47.28
2023-10-28T14:08:16.333Z,47.13
2023-10-28T14:10:47.133Z,47.09
2023-10-28T14:13:13.625Z,46.89
2023-10-28T14:15:43.429Z,46.92
2023-10-28T14:18:10.070Z,47.08
2023-10-28T14:20:36.826Z,47.03
2023-10-28T14:23:03.291Z,46.89
2023-10-28T14:25:29.665Z,46.82
2023-10-28T14:27:56.029Z,46.72
2023-10-28T14:30:23.353Z,46.93
2023-10-28T14:32:50.426Z,46.99
2023-10-28T14:35:17.199Z,47.26
2023-10-28T14:37:44.034Z,47.34
2023-10-28T14:40:11.614Z,47.29
2023-10-28T14:42:40.915Z,47.20
2023-10-28T14:45:12.388Z,47.17
2023-10-28T14:47:39.788Z,47.19
2023-10-28T14:50:09.093Z,47.26
2023-10-28T14:52:36.077Z,47.22
2023-10-28T14:55:02.908Z,47.46
2023-10-28T14:57:31.538Z,47.12
2023-10-28T14:59:58.869Z,47.21
2023-10-28T15:02:25.347Z,47.21
2023-10-28T15:04:52.011Z,47.24
2023-10-28T15:07:18.791Z,47.18
2023-10-28T15:09:48.118Z,47.20
2023-10-28T15:12:14.849Z,46.80
2023-10-28T15:14:41.289Z,47.05
2023-10-28T15:17:07.822Z,47.02
2023-10-28T15:19:34.242Z,47.05
2023-10-28T15:22:00.631Z,46.88
2023-10-28T15:24:26.993Z,46.82
2023-10-28T15:26:53.355Z,46.93
2023-10-28T15:29:19.855Z,46.93
2023-10-28T15:31:46.306Z,46.75
2023-10-28T15:34:13.907Z,46.95
2023-10-28T15:36:40.374Z,46.87
2023-10-28T15:39:06.814Z,46.94
2023-10-28T15:41:33.203Z,47.07
2023-10-28T15:44:01.866Z,46.66
2023-10-28T15:46:29.275Z,47.13
2023-10-28T15:48:55.618Z,47.14
2023-10-28T15:51:24.226Z,47.21
2023-10-28T15:53:50.587Z,47.13
2023-10-28T15:56:19.952Z,46.99
2023-10-28T15:58:46.547Z,47.13
2023-10-28T16:01:13.181Z,46.98
2023-10-28T16:03:39.721Z,47.19
2023-10-28T16:06:12.317Z,46.93
2023-10-28T16:08:39.031Z,47.24
2023-10-28T16:11:05.599Z,47.11
2023-10-28T16:13:32.813Z,47.26
2023-10-28T16:15:59.230Z,47.22
2023-10-28T16:18:26.325Z,47.32
2023-10-28T16:20:53.307Z,47.10
2023-10-28T16:23:19.724Z,47.20
2023-10-28T16:25:46.220Z,47.21
2023-10-28T16:28:12.658Z,47.06
2023-10-28T16:30:39.443Z,47.21
2023-10-28T16:33:05.977Z,47.17
2023-10-28T16:35:33.080Z,47.35
2023-10-28T16:37:59.517Z,47.40
2023-10-28T16:40:25.962Z,47.26
2023-10-28T16:42:52.400Z,47.37
2023-10-28T16:45:18.771Z,47.36
2023-10-28T16:47:45.233Z,47.09
2023-10-28T16:50:12.115Z,47.25
2023-10-28T16:52:38.813Z,47.38
2023-10-28T16:55:05.581Z,47.19
2023-10-28T16:57:33.186Z,47.42
2023-10-28T16:59:59.571Z,47.38
2023-10-28T17:02:26.414Z,47.42
2023-10-28T17:04:53.207Z,47.18
2023-10-28T17:07:19.635Z,47.31
2023-10-28T17:09:47.182Z,47.31
2023-10-28T17:12:14.197Z,47.03
2023-10-28T17:14:40.651Z,47.02
2023-10-28T17:17:07.157Z,47.18
2023-10-28T17:19:33.614Z,47.04
2023-10-28T17:22:00.276Z,46.95
2023-10-28T17:24:26.679Z,46.94
2023-10-28T17:26:54.394Z,46.87
2023-10-28T17:29:24.541Z,46.95
2023-10-28T17:31:51.261Z,46.77
2023-10-28T17:34:17.645Z,46.88
2023-10-28T17:36:44.081Z,46.86
2023-10-28T17:39:11.683Z,46.74
2023-10-28T17:41:38.073Z,46.74
2023-10-28T17:44:05.540Z,46.92
2023-10-28T17:46:31.920Z,46.90
2023-10-28T17:48:59.250Z,46.94
2023-10-28T17:51:30.040Z,47.03
2023-10-28T17:53:56.678Z,46.75
2023-10-28T17:56:23.438Z,46.87
2023-10-28T17:58:49.829Z,46.89
2023-10-28T18:01:16.406Z,47.01
2023-10-28T18:03:42.953Z,46.82
2023-10-28T18:06:09.701Z,46.68
2023-10-28T18:08:37.944Z,46.64
2023-10-28T18:11:05.523Z,46.89
2023-10-28T18:13:32.000Z,46.59
2023-10-28T18:15:59.054Z,46.54
2023-10-28T18:18:27.638Z,46.80
2023-10-28T18:20:54.582Z,46.66
2023-10-28T18:23:24.428Z,46.95
2023-10-28T18:25:51.544Z,46.87
2023-10-28T18:28:17.928Z,46.70
2023-10-28T18:30:44.288Z,46.99
2023-10-28T18:33:12.251Z,46.76
2023-10-28T18:35:39.975Z,46.99
2023-10-28T18:38:07.913Z,47.13
2023-10-28T18:40:34.727Z,47.06
2023-10-28T18:43:01.104Z,47.00
2023-10-28T18:45:27.481Z,46.93
2023-10-28T18:47:53.920Z,46.80
2023-10-28T18:50:22.868Z,47.01
2023-10-28T18:52:49.625Z,46.74
2023-10-28T18:55:16.032Z,46.74
2023-10-28T18:57:42.916Z,46.69
2023-10-28T19:00:12.270Z,46.70
2023-10-28T19:02:39.290Z,46.95
2023-10-28T19:05:06.225Z,46.83
2023-10-28T19:07:32.765Z,46.96
2023-10-28T19:09:59.693Z,47.06
2023-10-28T19:12:26.435Z,46.82
2023-10-28T19:14:52.812Z,46.92
2023-10-28T19:17:19.196Z,46.83
2023-10-28T19:19:47.136Z,46.94
2023-10-28T19:22:13.752Z,46.99
2023-10-28T19:24:40.288Z,46.93
2023-10-28T19:27:06.699Z,47.02
2023-10-28T19:29:33.127Z,46.90
2023-10-28T19:31:59.647Z,46.74
2023-10-28T19:34:26.070Z,46.88
2023-10-28T19:36:52.739Z,47.00
2023-10-28T19:39:22.757Z,46.75
2023-10-28T19:41:53.382Z,46.51
2023-10-28T19:44:20.132Z,46.47
2023-10-28T19:46:48.569Z,46.56
2023-10-28T19:49:16.166Z,46.57
2023-10-28T19:51:42.630Z,46.46
2023-10-28T19:54:08.992Z,46.57
2023-10-28T19:56:35.788Z,46.58
2023-10-28T19:59:04.634Z,46.70
2023-10-28T20:01:31.044Z,46.64
2023-10-28T20:03:57.760Z,46.65
2023-10-28T20:06:24.363Z,46.92
2023-10-28T20:08:50.883Z,46.62
2023-10-28T20:11:17.366Z,46.45
2023-10-28T20:13:47.582Z,46.58
2023-10-28T20:16:14.722Z,46.93
2023-10-28T20:18:41.147Z,46.71
2023-10-28T20:21:07.782Z,46.89
2023-10-28T20:23:34.200Z,46.76
2023-10-28T20:26:01.298Z,47.02
2023-10-28T20:28:27.652Z,46.92
2023-10-28T20:30:54.055Z,46.83
2023-10-28T20:33:21.309Z,47.18
2023-10-28T20:35:47.908Z,47.03
2023-10-28T20:38:14.342Z,47.06
2023-10-28T20:40:42.269Z,46.75
2023-10-28T20:43:09.411Z,47.08
2023-10-28T20:45:35.779Z,47.14
2023-10-28T20:48:02.407Z,47.30
2023-10-28T20:50:29.856Z,47.25
2023-10-28T20:52:56.273Z,47.24
2023-10-28T20:55:22.722Z,47.25
2023-10-28T20:57:49.423Z,47.04
2023-10-28T21:00:15.954Z,47.27
2023-10-28T21:02:42.560Z,47.22
2023-10-28T21:05:11.656Z,47.45
2023-10-28T21:07:38.481Z,47.26
2023-10-28T21:10:06.164Z,47.30
2023-10-28T21:12:32.837Z,47.14
2023-10-28T21:14:59.881Z,47.21
2023-10-28T21:17:26.421Z,47.21
2023-10-28T21:19:52.904Z,47.19
2023-10-28T21:22:19.271Z,47.15
2023-10-28T21:24:48.748Z,47.32
2023-10-28T21:27:15.433Z,47.25
2023-10-28T21:29:41.886Z,47.35
2023-10-28T21:32:09.632Z,47.17
2023-10-28T21:34:37.550Z,47.28
2023-10-28T21:37:03.956Z,47.14
2023-10-28T21:39:30.938Z,47.40
2023-10-28T21:41:57.338Z,47.26
2023-10-28T21:44:23.800Z,47.35
2023-10-28T21:46:50.241Z,47.31
2023-10-28T21:49:16.690Z,47.32
2023-10-28T21:51:43.240Z,47.30
2023-10-28T21:54:09.757Z,47.30
2023-10-28T21:56:36.197Z,47.29
2023-10-28T21:59:02.600Z,47.21
2023-10-28T22:01:29.028Z,47.32
2023-10-28T22:03:55.568Z,47.26
2023-10-28T22:06:22.260Z,47.32
2023-10-28T22:08:48.758Z,47.34
2023-10-28T22:11:15.428Z,47.24
2023-10-28T22:13:41.827Z,47.24
2023-10-28T22:16:08.867Z,47.11
2023-10-28T22:18:35.346Z,47.38
2023-10-28T22:21:01.718Z,47.18
2023-10-28T22:23:28.927Z,47.15
2023-10-28T22:25:55.370Z,47.30
2023-10-28T22:28:21.734Z,47.22
2023-10-28T22:30:48.498Z,47.37
2023-10-28T22:33:15.380Z,47.34
2023-10-28T22:35:42.064Z,47.42
2023-10-28T22:38:08.586Z,47.38
2023-10-28T22:40:34.965Z,47.37
2023-10-28T22:43:02.935Z,47.34
2023-10-28T22:45:30.040Z,47.43
2023-10-28T22:47:56.608Z,47.44
2023-10-28T22:50:23.263Z,47.34
2023-10-28T22:52:49.925Z,47.51
2023-10-28T22:55:17.555Z,47.39
2023-10-28T22:57:44.165Z,47.54
2023-10-28T23:00:10.811Z,47.55
2023-10-28T23:02:37.649Z,47.77
2023-10-28T23:05:04.858Z,47.42
2023-10-28T23:07:31.521Z,47.57
2023-10-28T23:09:57.890Z,47.61
2023-10-28T23:12:24.235Z,47.52
2023-10-28T23:14:50.688Z,47.59
2023-10-28T23:17:17.155Z,47.52
2023-10-28T23:19:43.565Z,47.47
2023-10-28T23:22:09.973Z,47.57
2023-10-28T23:24:36.438Z,47.71
2023-10-28T23:27:03.266Z,47.57
2023-10-28T23:29:29.831Z,47.51
2023-10-28T23:31:56.214Z,47.47
2023-10-28T23:34:22.574Z,47.69
2023-10-28T23:36:48.952Z,47.47
2023-10-28T23:39:15.310Z,47.60
2023-10-28T23:41:41.779Z,47.55
2023-10-28T23:44:08.192Z,47.64
2023-10-28T23:46:34.547Z,47.77
2023-10-28T23:49:00.937Z,47.65
2023-10-28T23:51:28.061Z,47.69
2023-10-28T23:53:54.613Z,47.72
2023-10-28T23:56:21.169Z,47.55
2023-10-28T23:58:47.570Z,47.70
